Latest Coastal Weather Observations for Swan Island

IDT60701

Issued at 1:42 pm EST Monday 26 September 2016 (issued every 10 minutes, with the page automatically refreshed every 10 minutes)

About coastal observations | Map of coastal stations | Coastal observations for TAS | Marine services | Other Formats
Station Details ID: 092123 Name: SWAN ISLAND Lat: -40.73 Lon: 148.12 Height: 15.0 m
Data from the previous 72 hours. | See also: Recent months at Swan Island
Date/Time
EST
Temp
°C
Wind Pressure Rain since
9am
mm
Weather Cloud Vis
km
Sea
Height
m
Swell
Dir  Spd
kts
Gust
kts
hPa Trend Height
m
Period
s
Dir
26/01:30pm 13.0 WNW 8 11 1009.8 - 0.0 - - - - - - -
26/01:00pm 14.3 W 9 14 1009.9 - 0.0 - - - - - - -
26/12:30pm 13.2 WNW 8 12 1010.3 - 0.0 - - - - - - -
26/12:00pm 14.8 W 8 12 1010.6 - 0.0 - - - - - - -
26/11:30am 13.5 WNW 9 14 1010.8 - 0.0 - - - - - - -
26/11:00am 12.9 W 8 11 1011.0 - 0.0 - - - - - - -
26/10:30am 14.1 W 10 15 1011.3 - 0.0 - - - - - - -
26/10:00am 13.4 W 9 14 1011.5 - 0.0 - - - - - - -
26/09:30am 13.9 W 10 15 1011.6 - 0.0 - - - - - - -
26/09:00am 13.0 W 10 14 1011.5 - 0.0 - - - - - - -
26/08:30am 12.0 W 9 13 1011.6 - 0.0 - - - - - - -
26/08:00am 11.6 W 9 13 1011.7 - 0.0 - - - - - - -
26/07:30am 10.6 W 7 9 1011.6 - 0.0 - - - - - - -
26/07:00am 9.6 WSW 4 7 1011.6 - 0.0 - - - - - - -
26/06:30am 8.3 WSW 5 7 1011.4 - 0.0 - - - - - - -
26/06:00am 8.1 WSW 4 6 1011.2 - 0.0 - - - - - - -
26/05:30am 7.9 WSW 4 6 1011.1 - 0.0 - - - - - - -
26/05:00am 8.0 WSW 5 7 1010.9 - 0.0 - - - - - - -
26/04:30am 8.1 WSW 5 7 1010.7 - 0.0 - - - - - - -
26/04:00am 8.3 WSW 5 6 1010.6 - 0.0 - - - - - - -
26/03:30am 8.6 WSW 5 7 1010.7 - 0.0 - - - - - - -
26/03:00am 9.2 WSW 5 7 1010.5 - 0.0 - - - - - - -
26/02:30am 10.0 W 2 3 1010.6 - 0.0 - - - - - - -
26/02:00am 10.3 CALM 0 1 1010.6 - 0.0 - - - - - - -
26/01:30am 10.5 NNE 3 4 1010.8 - 0.0 - - - - - - -
26/01:00am 11.3 NE 2 2 1010.9 - 0.0 - - - - - - -
26/12:30am 11.5 NE 2 3 1010.8 - 0.0 - - - - - - -
26/12:00am 11.1 ENE 3 4 1010.7 - 0.0 - - - - - - -
 
Date/Time
EST
Temp
°C
Wind Pressure Rain since
9am
mm
Weather Cloud Vis
km
Sea
Height
m
Swell
Dir  Spd
kts
Gust
kts
hPa Trend Height
m
Period
s
Dir
25/11:30pm 11.2 E 4 5 1010.5 - 0.0 - - - - - - -
25/11:00pm 11.2 ESE 5 6 1010.6 - 0.0 - - - - - - -
25/10:30pm 11.1 ESE 5 7 1010.5 - 0.0 - - - - - - -
25/10:00pm 11.2 ESE 5 7 1010.3 - 0.0 - - - - - - -
25/09:30pm 11.4 ESE 5 7 1010.2 - 0.0 - - - - - - -
25/09:00pm 11.7 ESE 6 7 1009.8 - 0.0 - - - - - - -
25/08:30pm 11.8 E 3 4 1009.6 - 0.0 - - - - - - -
25/08:00pm 11.8 ESE 6 8 1009.1 - 0.0 - - - - - - -
25/07:30pm 11.4 SW 3 4 1008.7 - 0.0 - - - - - - -
25/07:00pm 11.9 WSW 4 6 1008.0 - 0.0 - - - - - - -
25/06:30pm 12.0 WSW 5 8 1007.7 - 0.0 - - - - - - -
25/06:00pm 12.2 WSW 6 10 1007.4 - 0.0 - - - - - - -
25/05:30pm 12.4 WSW 9 14 1007.0 - 0.0 - - - - - - -
25/05:00pm 12.3 WSW 12 19 1006.8 - 0.0 - - - - - - -
25/04:30pm 13.1 W 15 24 1006.1 - 0.0 - - - - - - -
25/04:00pm 12.6 W 21 28 1005.6 - 0.0 - - - - - - -
25/03:30pm 12.8 W 22 30 1005.3 - 0.0 - - - - - - -
25/03:05pm 13.4 W 17 28 1005.2 - 0.0 - - - - - - -
25/03:00pm 13.7 W 17 26 1005.2 - 0.0 - - - - - - -
25/02:30pm 13.3 WNW 20 30 1004.8 - 0.0 - - - - - - -
25/02:14pm 13.6 W 18 29 1004.9 - 0.0 - - - - - - -
25/02:00pm 13.6 WNW 19 28 1005.0 - 0.0 - - - - - - -
25/01:30pm 13.6 WNW 18 26 1005.0 - 0.0 - - - - - - -
25/01:00pm 13.9 W 17 28 1005.0 - 0.0 - - - - - - -
25/12:30pm 13.4 WNW 20 31 1004.8 - 0.0 - - - - - - -
25/12:05pm 13.5 W 17 27 1004.8 - 0.0 - - - - - - -
25/12:00pm 13.9 W 16 24 1004.8 - 0.0 - - - - - - -
25/11:55am 14.0 W 16 26 1004.9 - 0.0 - - - - - - -
25/11:30am 13.6 W 17 25 1004.7 - 0.0 - - - - - - -
25/11:00am 13.7 WNW 17 23 1004.5 - 0.0 - - - - - - -
25/10:30am 13.3 W 16 25 1004.4 - 0.0 - - - - - - -
25/10:11am 13.4 W 18 29 1004.4 - 0.0 - - - - - - -
25/10:00am 13.4 W 19 28 1004.2 - 0.0 - - - - - - -
25/09:32am 13.2 W 20 31 1004.1 - 0.0 - - - - - - -
25/09:30am 13.1 W 19 28 1004.1 - 0.0 - - - - - - -
25/09:00am 12.9 W 16 27 1004.0 - 26.4 - - - - - - -
25/08:55am 12.9 W 16 27 1004.0 - 26.4 - - - - - - -
25/08:30am 12.6 W 17 25 1003.7 - 26.4 - - - - - - -
25/08:10am 12.4 W 19 29 1003.3 - 26.4 - - - - - - -
25/08:00am 12.2 W 18 27 1003.2 - 26.4 - - - - - - -
25/07:58am 12.0 W 17 27 1003.2 - 26.4 - - - - - - -
25/07:30am 11.6 W 16 24 1003.2 - 26.4 - - - - - - -
25/07:00am 11.9 W 14 21 1003.0 - 26.4 - - - - - - -
25/06:30am 12.6 NW 14 20 1002.8 - 26.4 - - - - - - -
25/06:00am 12.4 WNW 11 15 1002.8 - 26.4 - - - - - - -
25/05:30am 12.4 WNW 12 15 1002.7 - 26.4 - - - - - - -
25/05:00am 12.5 WNW 11 16 1002.5 - 26.4 - - - - - - -
25/04:30am 12.3 WNW 8 12 1002.3 - 26.4 - - - - - - -
25/04:00am 12.5 WNW 9 12 1002.6 - 26.4 - - - - - - -
25/03:30am 12.7 WNW 11 14 1002.6 - 26.4 - - - - - - -
25/03:00am 12.9 NW 14 17 1002.9 - 26.4 - - - - - - -
25/02:30am 12.8 NW 12 15 1003.2 - 26.4 - - - - - - -
25/02:00am 12.8 NW 7 8 1003.5 - 26.4 - - - - - - -
25/01:30am 12.5 NW 4 7 1003.9 - 26.2 - - - - - - -
25/01:00am 11.8 NNW 2 2 1004.1 - 26.2 - - - - - - -
25/12:30am 12.2 N 5 6 1004.2 - 26.2 - - - - - - -
25/12:00am 12.1 NNW 4 5 1004.3 - 26.2 - - - - - - -
 
Date/Time
EST
Temp
°C
Wind Pressure Rain since
9am
mm
Weather Cloud Vis
km
Sea
Height
m
Swell
Dir  Spd
kts
Gust
kts
hPa Trend Height
m
Period
s
Dir
24/11:30pm 11.9 N 3 4 1004.7 - 26.2 - - - - - - -
24/11:00pm 11.8 NW 2 4 1005.3 - 26.2 - - - - - - -
24/10:30pm 12.0 NNW 4 4 1005.5 - 26.2 - - - - - - -
24/10:00pm 12.3 NNW 4 5 1005.8 - 26.2 - - - - - - -
24/09:30pm 12.2 NW 5 6 1006.0 - 26.2 - - - - - - -
24/09:00pm 12.4 WNW 4 4 1006.4 - 26.2 - - - - - - -
24/08:30pm 12.5 WNW 3 4 1006.5 - 26.2 - - - - - - -
24/08:00pm 12.8 NW 4 5 1006.6 - 26.2 - - - - - - -
24/07:30pm 12.9 W 4 7 1006.4 - 26.2 - - - - - - -
24/07:00pm 13.2 WNW 4 6 1006.5 - 26.2 - - - - - - -
24/06:30pm 13.4 WNW 6 8 1006.3 - 26.2 - - - - - - -
24/06:00pm 13.6 WNW 8 10 1006.5 - 25.6 - - - - - - -
24/05:30pm 13.7 NW 9 13 1006.5 - 25.6 - - - - - - -
24/05:00pm 13.9 NNE 8 11 1006.3 - 25.6 - - - - - - -
24/04:30pm 13.9 NNE 11 14 1006.2 - 25.6 - - - - - - -
24/04:00pm 13.9 NE 10 13 1006.2 - 25.6 - - - - - - -
24/03:30pm 14.1 NE 12 15 1006.2 - 25.6 - - - - - - -
24/03:00pm 13.8 NNE 12 17 1006.6 - 25.6 Rain - - - - - -
24/02:30pm 13.9 NE 10 15 1006.9 - 25.2 - - - - - - -
24/02:00pm 13.6 NNE 11 15 1007.2 - 25.2 - - - - - - -
24/01:30pm 13.8 NNE 13 16 1007.5 - 22.6 - - - - - - -
24/01:00pm 14.0 NE 13 16 1007.8 - 22.0 - - - - - - -
24/12:30pm 13.9 NE 5 7 1008.6 - 21.2 - - - - - - -
24/12:00pm 13.7 NE 4 7 1009.0 - 20.2 Rain - - - - - -
24/11:30am 13.5 NNE 2 5 1009.5 - 10.6 - - - - - - -
24/11:00am 13.8 NNE 3 8 1009.8 - 4.6 - - - - - - -
24/10:30am 13.6 ENE 5 6 1010.3 - 1.6 - - - - - - -
24/10:00am 14.3 ENE 3 4 1010.7 - 0.0 - - - - - - -
24/09:30am 14.9 ENE 4 5 1010.9 - 0.0 - - - - - - -
24/09:00am 14.0 NE 4 5 1011.3 - 0.2 - - - - - - -
24/08:30am 13.7 NE 5 6 1011.5 - 0.2 - - - - - - -
24/08:00am 13.3 NE 8 10 1011.6 - 0.2 - - - - - - -
24/07:30am 13.2 ESE 7 8 1011.7 - 0.2 - - - - - - -
24/07:00am 12.4 SE 6 8 1011.8 - 0.2 - - - - - - -
24/06:30am 12.0 SE 7 9 1011.8 - 0.0 - - - - - - -
24/06:00am 11.9 SE 8 10 1011.7 - 0.0 - - - - - - -
24/05:30am 11.8 SE 8 11 1011.6 - 0.0 - - - - - - -
24/05:00am 11.6 SE 9 12 1011.6 - 0.0 - - - - - - -
24/04:30am 11.5 SE 10 11 1011.7 - 0.0 - - - - - - -
24/04:00am 11.5 SE 9 11 1012.0 - 0.0 - - - - - - -
24/03:30am 11.1 SE 8 10 1012.2 - 0.0 - - - - - - -
24/03:00am 10.8 SSE 7 10 1012.6 - 0.0 - - - - - - -
24/02:30am 10.9 SSE 7 9 1012.9 - 0.0 - - - - - - -
24/02:00am 11.7 SE 8 10 1013.2 - 0.0 - - - - - - -
24/01:30am 11.6 SE 9 11 1013.3 - 0.0 - - - - - - -
24/01:00am 11.5 SE 10 12 1013.2 - 0.0 - - - - - - -
24/12:30am 11.5 SE 9 11 1013.4 - 0.0 - - - - - - -
24/12:00am 11.1 SSE 7 9 1013.6 - 0.0 - - - - - - -
 
Date/Time
EST
Temp
°C
Wind Pressure Rain since
9am
mm
Weather Cloud Vis
km
Sea
Height
m
Swell
Dir  Spd
kts
Gust
kts
hPa Trend Height
m
Period
s
Dir
23/11:30pm 11.0 SSE 6 8 1014.1 - 0.0 - - - - - - -
23/11:00pm 11.1 SSE 6 7 1014.4 - 0.0 - - - - - - -
23/10:30pm 11.1 SSE 6 8 1014.5 - 0.0 - - - - - - -
23/10:00pm 11.4 SSE 5 7 1014.8 - 0.0 - - - - - - -
23/09:30pm 11.4 SE 5 6 1014.7 - 0.0 - - - - - - -
23/09:00pm 11.5 SE 5 6 1014.8 - 0.0 - - - - - - -
23/08:30pm 11.6 SE 5 5 1014.9 - 0.0 - - - - - - -
23/08:00pm 11.7 SE 4 5 1015.0 - 0.0 - - - - - - -
23/07:30pm 11.8 ESE 5 6 1014.9 - 0.0 - - - - - - -
23/07:00pm 11.8 SE 5 6 1014.8 - 0.0 - - - - - - -
23/06:30pm 12.0 SE 5 6 1014.7 - 0.0 - - - - - - -
23/06:00pm 12.4 ESE 5 6 1014.6 - 0.0 - - - - - - -
23/05:30pm 12.6 ESE 6 8 1014.5 - 0.0 - - - - - - -
23/05:00pm 12.9 ESE 8 9 1014.4 - 0.0 - - - - - - -
23/04:30pm 13.6 ESE 8 9 1014.4 - 0.0 - - - - - - -
23/04:00pm 14.0 E 8 10 1014.3 - 0.0 - - - - - - -
23/03:30pm 14.1 ESE 9 11 1014.5 - 0.0 - - - - - - -
23/03:00pm 13.8 E 9 11 1014.7 - 0.0 - - - - - - -
23/02:30pm 14.9 E 10 13 1014.8 - 0.0 - - - - - - -
23/02:00pm 14.7 ESE 11 13 1015.0 - 0.0 - - - - - - -

Other Formats:

Comma delimited format used in spreadsheet applications
http://www.bom.gov.au/fwo/IDT60701/IDT60701.95985.axf

JavaScript Object Notation format (JSON) in row-major order
http://www.bom.gov.au/fwo/IDT60701/IDT60701.95985.json